sensor_id;sensor_type;location;lat;lon;timestamp;P1;durP1;ratioP1;P2;durP2;ratioP2
5785;SDS011;2919;48.630;9.000;2022-07-21T00:01:48;11.63;;;7.80;;
5785;SDS011;2919;48.630;9.000;2022-07-21T00:04:15;14.80;;;7.30;;
5785;SDS011;2919;48.630;9.000;2022-07-21T00:06:42;11.10;;;6.93;;
5785;SDS011;2919;48.630;9.000;2022-07-21T00:09:08;11.17;;;6.90;;
5785;SDS011;2919;48.630;9.000;2022-07-21T00:11:36;11.73;;;7.03;;
5785;SDS011;2919;48.630;9.000;2022-07-21T00:14:02;13.00;;;7.10;;
5785;SDS011;2919;48.630;9.000;2022-07-21T00:16:33;13.37;;;7.13;;
5785;SDS011;2919;48.630;9.000;2022-07-21T00:18:59;14.77;;;7.77;;
5785;SDS011;2919;48.630;9.000;2022-07-21T00:21:25;12.80;;;8.47;;
5785;SDS011;2919;48.630;9.000;2022-07-21T00:23:56;15.50;;;8.10;;
5785;SDS011;2919;48.630;9.000;2022-07-21T00:26:28;13.43;;;6.60;;
5785;SDS011;2919;48.630;9.000;2022-07-21T00:28:54;21.43;;;7.20;;
5785;SDS011;2919;48.630;9.000;2022-07-21T00:31:19;10.97;;;7.30;;
5785;SDS011;2919;48.630;9.000;2022-07-21T00:33:45;10.43;;;6.90;;
5785;SDS011;2919;48.630;9.000;2022-07-21T00:36:11;10.90;;;6.50;;
5785;SDS011;2919;48.630;9.000;2022-07-21T00:38:36;19.17;;;6.37;;
5785;SDS011;2919;48.630;9.000;2022-07-21T00:41:02;17.90;;;6.63;;
5785;SDS011;2919;48.630;9.000;2022-07-21T00:43:28;15.17;;;7.20;;
5785;SDS011;2919;48.630;9.000;2022-07-21T00:45:54;8.23;;;5.73;;
5785;SDS011;2919;48.630;9.000;2022-07-21T00:48:20;10.60;;;6.67;;
5785;SDS011;2919;48.630;9.000;2022-07-21T00:50:46;9.40;;;5.90;;
5785;SDS011;2919;48.630;9.000;2022-07-21T00:53:12;9.00;;;5.47;;
5785;SDS011;2919;48.630;9.000;2022-07-21T00:55:37;12.03;;;5.53;;
5785;SDS011;2919;48.630;9.000;2022-07-21T00:58:08;12.07;;;5.63;;
5785;SDS011;2919;48.630;9.000;2022-07-21T01:00:34;14.70;;;5.93;;
5785;SDS011;2919;48.630;9.000;2022-07-21T01:03:00;7.60;;;4.93;;
5785;SDS011;2919;48.630;9.000;2022-07-21T01:05:26;11.10;;;5.80;;
5785;SDS011;2919;48.630;9.000;2022-07-21T01:07:52;9.47;;;5.30;;
5785;SDS011;2919;48.630;9.000;2022-07-21T01:10:21;11.30;;;5.30;;
5785;SDS011;2919;48.630;9.000;2022-07-21T01:12:48;9.93;;;5.83;;
5785;SDS011;2919;48.630;9.000;2022-07-21T01:15:15;7.77;;;4.10;;
5785;SDS011;2919;48.630;9.000;2022-07-21T01:17:41;13.73;;;6.13;;
5785;SDS011;2919;48.630;9.000;2022-07-21T01:20:09;10.00;;;4.70;;
5785;SDS011;2919;48.630;9.000;2022-07-21T01:22:38;9.77;;;5.67;;
5785;SDS011;2919;48.630;9.000;2022-07-21T01:25:05;8.97;;;5.50;;
5785;SDS011;2919;48.630;9.000;2022-07-21T01:27:31;9.03;;;4.73;;
5785;SDS011;2919;48.630;9.000;2022-07-21T01:29:57;8.30;;;4.77;;
5785;SDS011;2919;48.630;9.000;2022-07-21T01:32:23;11.93;;;5.97;;
5785;SDS011;2919;48.630;9.000;2022-07-21T01:34:49;13.20;;;5.87;;
5785;SDS011;2919;48.630;9.000;2022-07-21T01:37:19;11.57;;;5.30;;
5785;SDS011;2919;48.630;9.000;2022-07-21T01:39:52;8.67;;;5.13;;
5785;SDS011;2919;48.630;9.000;2022-07-21T01:42:36;11.73;;;5.23;;
5785;SDS011;2919;48.630;9.000;2022-07-21T01:45:02;9.10;;;5.27;;
5785;SDS011;2919;48.630;9.000;2022-07-21T01:47:28;8.60;;;4.90;;
5785;SDS011;2919;48.630;9.000;2022-07-21T01:49:54;10.77;;;5.60;;
5785;SDS011;2919;48.630;9.000;2022-07-21T01:52:20;7.90;;;5.00;;
5785;SDS011;2919;48.630;9.000;2022-07-21T01:54:45;12.03;;;5.97;;
5785;SDS011;2919;48.630;9.000;2022-07-21T01:57:11;10.07;;;5.60;;
5785;SDS011;2919;48.630;9.000;2022-07-21T01:59:36;13.17;;;6.70;;
5785;SDS011;2919;48.630;9.000;2022-07-21T02:02:02;13.10;;;6.73;;
5785;SDS011;2919;48.630;9.000;2022-07-21T02:04:28;17.77;;;5.60;;
5785;SDS011;2919;48.630;9.000;2022-07-21T02:06:54;10.60;;;5.40;;
5785;SDS011;2919;48.630;9.000;2022-07-21T02:09:19;10.70;;;6.40;;
5785;SDS011;2919;48.630;9.000;2022-07-21T02:11:45;13.20;;;6.90;;
5785;SDS011;2919;48.630;9.000;2022-07-21T02:14:11;9.80;;;6.13;;
5785;SDS011;2919;48.630;9.000;2022-07-21T02:16:36;10.47;;;6.03;;
5785;SDS011;2919;48.630;9.000;2022-07-21T02:19:02;9.17;;;5.47;;
5785;SDS011;2919;48.630;9.000;2022-07-21T02:21:28;11.73;;;6.50;;
5785;SDS011;2919;48.630;9.000;2022-07-21T02:23:53;12.60;;;6.73;;
5785;SDS011;2919;48.630;9.000;2022-07-21T02:26:19;12.80;;;6.87;;
5785;SDS011;2919;48.630;9.000;2022-07-21T02:28:45;11.60;;;6.43;;
5785;SDS011;2919;48.630;9.000;2022-07-21T02:31:12;12.33;;;6.20;;
5785;SDS011;2919;48.630;9.000;2022-07-21T02:33:38;12.30;;;7.10;;
5785;SDS011;2919;48.630;9.000;2022-07-21T02:36:04;12.77;;;7.47;;
5785;SDS011;2919;48.630;9.000;2022-07-21T02:38:30;9.43;;;6.50;;
5785;SDS011;2919;48.630;9.000;2022-07-21T02:40:56;13.40;;;7.47;;
5785;SDS011;2919;48.630;9.000;2022-07-21T02:43:21;15.13;;;7.53;;
5785;SDS011;2919;48.630;9.000;2022-07-21T02:45:47;20.27;;;8.23;;
5785;SDS011;2919;48.630;9.000;2022-07-21T02:48:13;12.60;;;6.60;;
5785;SDS011;2919;48.630;9.000;2022-07-21T02:50:40;14.53;;;7.20;;
5785;SDS011;2919;48.630;9.000;2022-07-21T02:53:08;18.50;;;7.10;;
5785;SDS011;2919;48.630;9.000;2022-07-21T02:55:43;14.47;;;6.80;;
5785;SDS011;2919;48.630;9.000;2022-07-21T02:58:10;13.30;;;7.93;;
5785;SDS011;2919;48.630;9.000;2022-07-21T03:00:42;11.53;;;6.27;;
5785;SDS011;2919;48.630;9.000;2022-07-21T03:03:10;11.50;;;6.97;;
5785;SDS011;2919;48.630;9.000;2022-07-21T03:05:37;11.87;;;7.03;;
5785;SDS011;2919;48.630;9.000;2022-07-21T03:08:04;14.83;;;8.13;;
5785;SDS011;2919;48.630;9.000;2022-07-21T03:10:30;17.10;;;6.60;;
5785;SDS011;2919;48.630;9.000;2022-07-21T03:12:56;9.67;;;5.70;;
5785;SDS011;2919;48.630;9.000;2022-07-21T03:15:22;14.53;;;8.03;;
5785;SDS011;2919;48.630;9.000;2022-07-21T03:17:47;12.53;;;6.90;;
5785;SDS011;2919;48.630;9.000;2022-07-21T03:20:13;27.63;;;6.67;;
5785;SDS011;2919;48.630;9.000;2022-07-21T03:22:39;12.60;;;7.80;;
5785;SDS011;2919;48.630;9.000;2022-07-21T03:25:05;12.90;;;7.33;;
5785;SDS011;2919;48.630;9.000;2022-07-21T03:27:31;11.10;;;6.83;;
5785;SDS011;2919;48.630;9.000;2022-07-21T03:30:02;9.90;;;6.67;;
5785;SDS011;2919;48.630;9.000;2022-07-21T03:32:32;11.70;;;6.70;;
5785;SDS011;2919;48.630;9.000;2022-07-21T03:34:58;13.53;;;7.27;;
5785;SDS011;2919;48.630;9.000;2022-07-21T03:37:24;14.03;;;6.40;;
5785;SDS011;2919;48.630;9.000;2022-07-21T03:39:50;15.40;;;7.80;;
5785;SDS011;2919;48.630;9.000;2022-07-21T03:42:15;13.40;;;7.17;;
5785;SDS011;2919;48.630;9.000;2022-07-21T03:44:41;16.97;;;7.70;;
5785;SDS011;2919;48.630;9.000;2022-07-21T03:47:06;12.30;;;6.97;;
5785;SDS011;2919;48.630;9.000;2022-07-21T03:49:32;14.00;;;7.87;;
5785;SDS011;2919;48.630;9.000;2022-07-21T03:51:58;14.37;;;8.50;;
5785;SDS011;2919;48.630;9.000;2022-07-21T03:54:23;14.43;;;8.17;;
5785;SDS011;2919;48.630;9.000;2022-07-21T03:56:49;11.63;;;6.60;;
5785;SDS011;2919;48.630;9.000;2022-07-21T03:59:15;12.97;;;7.63;;
5785;SDS011;2919;48.630;9.000;2022-07-21T04:01:40;12.37;;;7.03;;
5785;SDS011;2919;48.630;9.000;2022-07-21T04:04:06;16.20;;;7.40;;
5785;SDS011;2919;48.630;9.000;2022-07-21T04:06:32;19.43;;;7.10;;
5785;SDS011;2919;48.630;9.000;2022-07-21T04:08:57;13.70;;;8.83;;
5785;SDS011;2919;48.630;9.000;2022-07-21T04:11:23;10.63;;;7.33;;
5785;SDS011;2919;48.630;9.000;2022-07-21T04:13:48;18.40;;;7.53;;
5785;SDS011;2919;48.630;9.000;2022-07-21T04:16:14;12.77;;;8.07;;
5785;SDS011;2919;48.630;9.000;2022-07-21T04:18:40;27.97;;;7.90;;
5785;SDS011;2919;48.630;9.000;2022-07-21T04:21:05;11.97;;;6.93;;
5785;SDS011;2919;48.630;9.000;2022-07-21T04:23:31;12.60;;;6.73;;
5785;SDS011;2919;48.630;9.000;2022-07-21T04:25:57;15.10;;;8.50;;
5785;SDS011;2919;48.630;9.000;2022-07-21T04:28:23;16.13;;;8.57;;
5785;SDS011;2919;48.630;9.000;2022-07-21T04:30:49;14.80;;;8.63;;
5785;SDS011;2919;48.630;9.000;2022-07-21T04:33:15;15.57;;;8.03;;
5785;SDS011;2919;48.630;9.000;2022-07-21T04:35:40;18.07;;;8.37;;
5785;SDS011;2919;48.630;9.000;2022-07-21T04:38:06;17.97;;;8.20;;
5785;SDS011;2919;48.630;9.000;2022-07-21T04:40:34;26.50;;;9.53;;
5785;SDS011;2919;48.630;9.000;2022-07-21T04:43:00;15.90;;;9.53;;
5785;SDS011;2919;48.630;9.000;2022-07-21T04:45:26;24.07;;;8.40;;
5785;SDS011;2919;48.630;9.000;2022-07-21T04:47:52;19.80;;;8.60;;
5785;SDS011;2919;48.630;9.000;2022-07-21T04:50:20;18.23;;;9.40;;
5785;SDS011;2919;48.630;9.000;2022-07-21T04:52:47;16.97;;;10.20;;
5785;SDS011;2919;48.630;9.000;2022-07-21T04:55:14;16.20;;;7.60;;
5785;SDS011;2919;48.630;9.000;2022-07-21T04:57:42;13.83;;;8.67;;
5785;SDS011;2919;48.630;9.000;2022-07-21T05:00:10;13.30;;;8.40;;
5785;SDS011;2919;48.630;9.000;2022-07-21T05:02:38;20.83;;;7.40;;
5785;SDS011;2919;48.630;9.000;2022-07-21T05:05:05;22.50;;;8.30;;
5785;SDS011;2919;48.630;9.000;2022-07-21T05:07:31;11.73;;;7.30;;
5785;SDS011;2919;48.630;9.000;2022-07-21T05:09:57;15.80;;;7.93;;
5785;SDS011;2919;48.630;9.000;2022-07-21T05:12:24;17.10;;;9.20;;
5785;SDS011;2919;48.630;9.000;2022-07-21T05:14:50;16.27;;;7.97;;
5785;SDS011;2919;48.630;9.000;2022-07-21T05:17:16;16.63;;;7.50;;
5785;SDS011;2919;48.630;9.000;2022-07-21T05:19:41;16.10;;;8.17;;
5785;SDS011;2919;48.630;9.000;2022-07-21T05:22:08;15.83;;;8.07;;
5785;SDS011;2919;48.630;9.000;2022-07-21T05:24:34;14.47;;;7.80;;
5785;SDS011;2919;48.630;9.000;2022-07-21T05:27:00;13.83;;;8.00;;
5785;SDS011;2919;48.630;9.000;2022-07-21T05:29:25;17.60;;;8.23;;
5785;SDS011;2919;48.630;9.000;2022-07-21T05:31:51;13.37;;;8.43;;
5785;SDS011;2919;48.630;9.000;2022-07-21T05:34:17;15.67;;;8.57;;
5785;SDS011;2919;48.630;9.000;2022-07-21T05:36:42;17.40;;;8.73;;
5785;SDS011;2919;48.630;9.000;2022-07-21T05:39:08;22.43;;;8.83;;
5785;SDS011;2919;48.630;9.000;2022-07-21T05:41:33;13.90;;;9.10;;
5785;SDS011;2919;48.630;9.000;2022-07-21T05:43:59;16.60;;;7.90;;
5785;SDS011;2919;48.630;9.000;2022-07-21T05:46:25;17.87;;;8.30;;
5785;SDS011;2919;48.630;9.000;2022-07-21T05:48:52;15.60;;;6.90;;
5785;SDS011;2919;48.630;9.000;2022-07-21T05:51:19;15.93;;;6.80;;
5785;SDS011;2919;48.630;9.000;2022-07-21T05:53:44;13.20;;;7.40;;
5785;SDS011;2919;48.630;9.000;2022-07-21T05:56:10;11.70;;;6.80;;
5785;SDS011;2919;48.630;9.000;2022-07-21T05:58:36;14.57;;;7.27;;
5785;SDS011;2919;48.630;9.000;2022-07-21T06:01:02;19.50;;;8.37;;
5785;SDS011;2919;48.630;9.000;2022-07-21T06:03:44;19.90;;;9.00;;
5785;SDS011;2919;48.630;9.000;2022-07-21T06:06:11;13.47;;;8.37;;
5785;SDS011;2919;48.630;9.000;2022-07-21T06:08:39;14.40;;;8.30;;
5785;SDS011;2919;48.630;9.000;2022-07-21T06:11:10;14.17;;;6.63;;
5785;SDS011;2919;48.630;9.000;2022-07-21T06:13:37;16.50;;;6.80;;
5785;SDS011;2919;48.630;9.000;2022-07-21T06:16:03;10.37;;;6.70;;
5785;SDS011;2919;48.630;9.000;2022-07-21T06:18:30;16.80;;;6.70;;
5785;SDS011;2919;48.630;9.000;2022-07-21T06:20:57;11.93;;;6.73;;
5785;SDS011;2919;48.630;9.000;2022-07-21T06:23:23;15.10;;;7.67;;
5785;SDS011;2919;48.630;9.000;2022-07-21T06:25:49;22.40;;;8.00;;
5785;SDS011;2919;48.630;9.000;2022-07-21T06:28:16;18.30;;;7.57;;
5785;SDS011;2919;48.630;9.000;2022-07-21T06:30:42;10.30;;;6.50;;
5785;SDS011;2919;48.630;9.000;2022-07-21T06:33:08;12.90;;;6.20;;
5785;SDS011;2919;48.630;9.000;2022-07-21T06:35:33;11.30;;;5.30;;
5785;SDS011;2919;48.630;9.000;2022-07-21T06:37:59;11.80;;;6.20;;
5785;SDS011;2919;48.630;9.000;2022-07-21T06:40:25;10.33;;;6.27;;
5785;SDS011;2919;48.630;9.000;2022-07-21T06:42:51;11.90;;;5.53;;
5785;SDS011;2919;48.630;9.000;2022-07-21T06:45:16;9.70;;;5.60;;
5785;SDS011;2919;48.630;9.000;2022-07-21T06:47:42;14.73;;;6.03;;
5785;SDS011;2919;48.630;9.000;2022-07-21T06:50:08;7.87;;;5.30;;
5785;SDS011;2919;48.630;9.000;2022-07-21T06:52:35;17.17;;;6.43;;
5785;SDS011;2919;48.630;9.000;2022-07-21T06:55:02;12.60;;;6.77;;
5785;SDS011;2919;48.630;9.000;2022-07-21T06:57:28;15.57;;;5.97;;
5785;SDS011;2919;48.630;9.000;2022-07-21T06:59:54;10.00;;;5.40;;
5785;SDS011;2919;48.630;9.000;2022-07-21T07:02:20;10.17;;;5.77;;
5785;SDS011;2919;48.630;9.000;2022-07-21T07:04:46;10.23;;;4.50;;
5785;SDS011;2919;48.630;9.000;2022-07-21T07:07:11;11.40;;;6.40;;
5785;SDS011;2919;48.630;9.000;2022-07-21T07:09:37;8.40;;;4.97;;
5785;SDS011;2919;48.630;9.000;2022-07-21T07:12:03;15.17;;;4.60;;
5785;SDS011;2919;48.630;9.000;2022-07-21T07:14:30;15.03;;;4.67;;
5785;SDS011;2919;48.630;9.000;2022-07-21T07:16:56;8.90;;;5.00;;
5785;SDS011;2919;48.630;9.000;2022-07-21T07:19:23;11.77;;;5.73;;
5785;SDS011;2919;48.630;9.000;2022-07-21T07:21:49;9.07;;;4.80;;
5785;SDS011;2919;48.630;9.000;2022-07-21T07:24:15;16.80;;;5.67;;
5785;SDS011;2919;48.630;9.000;2022-07-21T07:26:40;10.27;;;4.30;;
5785;SDS011;2919;48.630;9.000;2022-07-21T07:29:06;11.43;;;5.00;;
5785;SDS011;2919;48.630;9.000;2022-07-21T07:31:31;7.80;;;3.90;;
5785;SDS011;2919;48.630;9.000;2022-07-21T07:33:57;8.33;;;4.30;;
5785;SDS011;2919;48.630;9.000;2022-07-21T07:36:26;5.70;;;3.50;;
5785;SDS011;2919;48.630;9.000;2022-07-21T07:38:53;12.23;;;5.40;;
5785;SDS011;2919;48.630;9.000;2022-07-21T07:41:20;9.73;;;4.20;;
5785;SDS011;2919;48.630;9.000;2022-07-21T07:43:46;13.13;;;5.10;;
5785;SDS011;2919;48.630;9.000;2022-07-21T07:46:13;8.60;;;4.50;;
5785;SDS011;2919;48.630;9.000;2022-07-21T07:48:39;7.73;;;4.00;;
5785;SDS011;2919;48.630;9.000;2022-07-21T07:51:06;10.40;;;3.87;;
5785;SDS011;2919;48.630;9.000;2022-07-21T07:53:32;8.43;;;3.97;;
5785;SDS011;2919;48.630;9.000;2022-07-21T07:56:00;4.82;;;3.28;;
5785;SDS011;2919;48.630;9.000;2022-07-21T07:58:27;8.20;;;3.85;;
5785;SDS011;2919;48.630;9.000;2022-07-21T08:00:52;6.72;;;4.22;;
5785;SDS011;2919;48.630;9.000;2022-07-21T08:03:19;10.65;;;4.25;;
5785;SDS011;2919;48.630;9.000;2022-07-21T08:05:45;6.32;;;3.80;;
5785;SDS011;2919;48.630;9.000;2022-07-21T08:08:12;8.15;;;4.07;;
5785;SDS011;2919;48.630;9.000;2022-07-21T08:10:38;5.65;;;3.53;;
5785;SDS011;2919;48.630;9.000;2022-07-21T08:13:03;7.18;;;3.70;;
5785;SDS011;2919;48.630;9.000;2022-07-21T08:15:29;7.03;;;4.03;;
5785;SDS011;2919;48.630;9.000;2022-07-21T08:17:55;11.75;;;3.55;;
5785;SDS011;2919;48.630;9.000;2022-07-21T08:20:20;7.18;;;3.90;;
5785;SDS011;2919;48.630;9.000;2022-07-21T08:22:46;9.70;;;3.87;;
5785;SDS011;2919;48.630;9.000;2022-07-21T08:25:12;10.50;;;4.17;;
5785;SDS011;2919;48.630;9.000;2022-07-21T08:27:37;10.10;;;3.73;;
5785;SDS011;2919;48.630;9.000;2022-07-21T08:30:04;24.43;;;3.90;;
5785;SDS011;2919;48.630;9.000;2022-07-21T08:32:30;5.70;;;3.83;;
5785;SDS011;2919;48.630;9.000;2022-07-21T08:34:56;6.80;;;4.25;;
5785;SDS011;2919;48.630;9.000;2022-07-21T08:37:21;6.22;;;3.83;;
5785;SDS011;2919;48.630;9.000;2022-07-21T08:39:47;5.32;;;3.17;;
5785;SDS011;2919;48.630;9.000;2022-07-21T08:42:13;6.88;;;3.35;;
5785;SDS011;2919;48.630;9.000;2022-07-21T08:44:39;6.97;;;3.83;;
5785;SDS011;2919;48.630;9.000;2022-07-21T08:47:05;5.55;;;3.08;;
5785;SDS011;2919;48.630;9.000;2022-07-21T08:49:33;8.40;;;4.20;;
5785;SDS011;2919;48.630;9.000;2022-07-21T08:52:00;8.10;;;4.10;;
5785;SDS011;2919;48.630;9.000;2022-07-21T08:54:26;6.55;;;3.95;;
5785;SDS011;2919;48.630;9.000;2022-07-21T08:56:51;5.75;;;3.63;;
5785;SDS011;2919;48.630;9.000;2022-07-21T08:59:17;8.35;;;3.47;;
5785;SDS011;2919;48.630;9.000;2022-07-21T09:01:43;5.07;;;2.95;;
5785;SDS011;2919;48.630;9.000;2022-07-21T09:04:28;11.65;;;3.72;;
5785;SDS011;2919;48.630;9.000;2022-07-21T09:07:04;6.00;;;2.90;;
5785;SDS011;2919;48.630;9.000;2022-07-21T09:09:31;7.65;;;2.95;;
5785;SDS011;2919;48.630;9.000;2022-07-21T09:11:59;5.60;;;2.97;;
5785;SDS011;2919;48.630;9.000;2022-07-21T09:14:27;5.18;;;3.40;;
5785;SDS011;2919;48.630;9.000;2022-07-21T09:16:56;5.97;;;3.78;;
5785;SDS011;2919;48.630;9.000;2022-07-21T09:21:54;6.57;;;4.15;;
5785;SDS011;2919;48.630;9.000;2022-07-21T09:24:23;6.25;;;3.30;;
5785;SDS011;2919;48.630;9.000;2022-07-21T09:32:25;10.80;;;3.95;;
5785;SDS011;2919;48.630;9.000;2022-07-21T09:37:25;5.90;;;3.50;;
5785;SDS011;2919;48.630;9.000;2022-07-21T09:39:57;4.90;;;3.33;;
5785;SDS011;2919;48.630;9.000;2022-07-21T09:44:56;7.68;;;3.20;;
5785;SDS011;2919;48.630;9.000;2022-07-21T09:47:22;5.90;;;3.03;;
5785;SDS011;2919;48.630;9.000;2022-07-21T09:49:51;4.65;;;2.70;;
5785;SDS011;2919;48.630;9.000;2022-07-21T09:52:31;6.15;;;3.28;;
5785;SDS011;2919;48.630;9.000;2022-07-21T09:55:09;5.95;;;3.75;;
5785;SDS011;2919;48.630;9.000;2022-07-21T09:57:36;5.22;;;3.35;;
5785;SDS011;2919;48.630;9.000;2022-07-21T10:00:03;6.72;;;3.88;;
5785;SDS011;2919;48.630;9.000;2022-07-21T10:02:32;5.90;;;2.92;;
5785;SDS011;2919;48.630;9.000;2022-07-21T10:05:00;7.47;;;3.40;;
5785;SDS011;2919;48.630;9.000;2022-07-21T10:07:32;6.35;;;3.65;;
5785;SDS011;2919;48.630;9.000;2022-07-21T10:10:00;5.75;;;3.25;;
5785;SDS011;2919;48.630;9.000;2022-07-21T10:12:26;6.32;;;3.42;;
5785;SDS011;2919;48.630;9.000;2022-07-21T10:14:53;7.38;;;2.78;;
5785;SDS011;2919;48.630;9.000;2022-07-21T10:17:21;4.60;;;2.55;;
5785;SDS011;2919;48.630;9.000;2022-07-21T10:24:41;4.55;;;2.45;;
5785;SDS011;2919;48.630;9.000;2022-07-21T10:27:12;3.80;;;2.00;;
5785;SDS011;2919;48.630;9.000;2022-07-21T10:32:17;9.37;;;2.67;;
5785;SDS011;2919;48.630;9.000;2022-07-21T10:35:24;4.00;;;2.40;;
5785;SDS011;2919;48.630;9.000;2022-07-21T10:37:52;5.87;;;2.63;;
5785;SDS011;2919;48.630;9.000;2022-07-21T10:42:43;3.37;;;2.10;;
5785;SDS011;2919;48.630;9.000;2022-07-21T10:48:09;4.57;;;2.50;;
5785;SDS011;2919;48.630;9.000;2022-07-21T10:51:02;5.10;;;3.20;;
5785;SDS011;2919;48.630;9.000;2022-07-21T10:53:31;4.40;;;2.57;;
5785;SDS011;2919;48.630;9.000;2022-07-21T10:55:57;4.60;;;2.33;;
5785;SDS011;2919;48.630;9.000;2022-07-21T11:00:52;4.63;;;2.80;;
5785;SDS011;2919;48.630;9.000;2022-07-21T11:03:23;4.40;;;2.83;;
5785;SDS011;2919;48.630;9.000;2022-07-21T11:08:49;7.30;;;2.37;;
5785;SDS011;2919;48.630;9.000;2022-07-21T11:11:28;3.60;;;2.60;;
5785;SDS011;2919;48.630;9.000;2022-07-21T11:22:11;9.43;;;2.80;;
5785;SDS011;2919;48.630;9.000;2022-07-21T11:24:43;4.53;;;2.50;;
5785;SDS011;2919;48.630;9.000;2022-07-21T11:27:15;4.43;;;2.43;;
5785;SDS011;2919;48.630;9.000;2022-07-21T11:29:46;5.00;;;2.60;;
5785;SDS011;2919;48.630;9.000;2022-07-21T11:32:14;3.90;;;2.50;;
5785;SDS011;2919;48.630;9.000;2022-07-21T11:37:14;7.40;;;1.77;;
5785;SDS011;2919;48.630;9.000;2022-07-21T11:39:41;4.20;;;1.93;;
5785;SDS011;2919;48.630;9.000;2022-07-21T11:42:12;2.80;;;1.70;;
5785;SDS011;2919;48.630;9.000;2022-07-21T11:44:40;5.33;;;2.20;;
5785;SDS011;2919;48.630;9.000;2022-07-21T11:47:09;5.40;;;2.63;;
5785;SDS011;2919;48.630;9.000;2022-07-21T11:49:36;4.10;;;2.10;;
5785;SDS011;2919;48.630;9.000;2022-07-21T11:52:04;11.33;;;2.80;;
5785;SDS011;2919;48.630;9.000;2022-07-21T11:54:37;4.20;;;2.37;;
5785;SDS011;2919;48.630;9.000;2022-07-21T11:57:13;4.90;;;2.47;;
5785;SDS011;2919;48.630;9.000;2022-07-21T11:59:40;5.33;;;2.20;;
5785;SDS011;2919;48.630;9.000;2022-07-21T12:02:08;3.10;;;2.03;;
5785;SDS011;2919;48.630;9.000;2022-07-21T12:07:17;5.07;;;2.50;;
5785;SDS011;2919;48.630;9.000;2022-07-21T12:09:49;11.90;;;2.37;;
5785;SDS011;2919;48.630;9.000;2022-07-21T12:15:16;7.13;;;2.40;;
5785;SDS011;2919;48.630;9.000;2022-07-21T12:17:56;4.30;;;2.00;;
5785;SDS011;2919;48.630;9.000;2022-07-21T12:22:53;5.50;;;2.43;;
5785;SDS011;2919;48.630;9.000;2022-07-21T12:25:29;4.50;;;2.20;;
5785;SDS011;2919;48.630;9.000;2022-07-21T12:27:57;3.53;;;2.40;;
5785;SDS011;2919;48.630;9.000;2022-07-21T12:30:37;4.60;;;2.53;;
5785;SDS011;2919;48.630;9.000;2022-07-21T12:33:12;3.63;;;1.90;;
5785;SDS011;2919;48.630;9.000;2022-07-21T12:38:39;3.70;;;2.00;;
5785;SDS011;2919;48.630;9.000;2022-07-21T12:41:05;5.47;;;2.27;;
5785;SDS011;2919;48.630;9.000;2022-07-21T12:43:33;5.03;;;1.60;;
5785;SDS011;2919;48.630;9.000;2022-07-21T12:48:34;7.90;;;2.47;;
5785;SDS011;2919;48.630;9.000;2022-07-21T12:53:35;4.97;;;2.57;;
5785;SDS011;2919;48.630;9.000;2022-07-21T12:56:11;3.70;;;2.20;;
5785;SDS011;2919;48.630;9.000;2022-07-21T12:58:38;3.43;;;1.97;;
5785;SDS011;2919;48.630;9.000;2022-07-21T13:01:04;3.67;;;1.70;;
5785;SDS011;2919;48.630;9.000;2022-07-21T13:03:31;3.20;;;1.93;;
5785;SDS011;2919;48.630;9.000;2022-07-21T13:05:58;5.33;;;2.87;;
5785;SDS011;2919;48.630;9.000;2022-07-21T13:08:25;42.40;;;2.87;;
5785;SDS011;2919;48.630;9.000;2022-07-21T13:10:51;7.20;;;2.33;;
5785;SDS011;2919;48.630;9.000;2022-07-21T13:13:17;4.50;;;2.17;;
5785;SDS011;2919;48.630;9.000;2022-07-21T13:15:42;20.57;;;2.70;;
5785;SDS011;2919;48.630;9.000;2022-07-21T13:18:08;5.40;;;2.00;;
5785;SDS011;2919;48.630;9.000;2022-07-21T13:20:34;7.13;;;2.37;;
5785;SDS011;2919;48.630;9.000;2022-07-21T13:23:00;6.33;;;3.00;;
5785;SDS011;2919;48.630;9.000;2022-07-21T13:25:25;7.43;;;3.20;;
5785;SDS011;2919;48.630;9.000;2022-07-21T13:27:51;4.90;;;2.10;;
5785;SDS011;2919;48.630;9.000;2022-07-21T13:30:17;4.67;;;2.20;;
5785;SDS011;2919;48.630;9.000;2022-07-21T13:32:42;2.83;;;1.67;;
5785;SDS011;2919;48.630;9.000;2022-07-21T13:35:09;6.20;;;2.80;;
5785;SDS011;2919;48.630;9.000;2022-07-21T13:37:34;3.00;;;1.90;;
5785;SDS011;2919;48.630;9.000;2022-07-21T13:40:00;4.93;;;2.37;;
5785;SDS011;2919;48.630;9.000;2022-07-21T13:42:26;4.97;;;3.00;;
5785;SDS011;2919;48.630;9.000;2022-07-21T13:44:51;6.83;;;2.27;;
5785;SDS011;2919;48.630;9.000;2022-07-21T13:47:17;3.20;;;2.10;;
5785;SDS011;2919;48.630;9.000;2022-07-21T13:49:43;5.30;;;2.40;;
5785;SDS011;2919;48.630;9.000;2022-07-21T13:52:08;4.07;;;2.30;;
5785;SDS011;2919;48.630;9.000;2022-07-21T13:54:34;8.47;;;2.50;;
5785;SDS011;2919;48.630;9.000;2022-07-21T13:57:00;9.77;;;2.30;;
5785;SDS011;2919;48.630;9.000;2022-07-21T13:59:26;3.80;;;2.40;;
5785;SDS011;2919;48.630;9.000;2022-07-21T14:01:52;4.87;;;3.37;;
5785;SDS011;2919;48.630;9.000;2022-07-21T14:04:18;7.73;;;3.10;;
5785;SDS011;2919;48.630;9.000;2022-07-21T14:06:44;4.20;;;2.67;;
5785;SDS011;2919;48.630;9.000;2022-07-21T14:09:14;5.43;;;3.17;;
5785;SDS011;2919;48.630;9.000;2022-07-21T14:11:41;3.33;;;2.43;;
5785;SDS011;2919;48.630;9.000;2022-07-21T14:14:07;5.23;;;3.33;;
5785;SDS011;2919;48.630;9.000;2022-07-21T14:16:33;7.77;;;3.33;;
5785;SDS011;2919;48.630;9.000;2022-07-21T14:18:59;6.70;;;3.17;;
5785;SDS011;2919;48.630;9.000;2022-07-21T14:21:25;4.53;;;2.70;;
5785;SDS011;2919;48.630;9.000;2022-07-21T14:23:51;5.20;;;3.03;;
5785;SDS011;2919;48.630;9.000;2022-07-21T14:26:37;5.70;;;3.70;;
5785;SDS011;2919;48.630;9.000;2022-07-21T14:29:04;5.23;;;2.70;;
5785;SDS011;2919;48.630;9.000;2022-07-21T14:31:30;5.97;;;2.50;;
5785;SDS011;2919;48.630;9.000;2022-07-21T14:33:56;9.20;;;2.93;;
5785;SDS011;2919;48.630;9.000;2022-07-21T14:36:22;4.70;;;2.80;;
5785;SDS011;2919;48.630;9.000;2022-07-21T14:38:47;4.60;;;2.80;;
5785;SDS011;2919;48.630;9.000;2022-07-21T14:41:13;6.10;;;3.03;;
5785;SDS011;2919;48.630;9.000;2022-07-21T14:43:39;6.07;;;2.90;;
5785;SDS011;2919;48.630;9.000;2022-07-21T14:46:05;6.67;;;3.00;;
5785;SDS011;2919;48.630;9.000;2022-07-21T14:48:31;4.50;;;2.80;;
5785;SDS011;2919;48.630;9.000;2022-07-21T14:50:57;4.83;;;2.30;;
5785;SDS011;2919;48.630;9.000;2022-07-21T14:53:22;4.40;;;2.63;;
5785;SDS011;2919;48.630;9.000;2022-07-21T14:55:48;4.67;;;2.90;;
5785;SDS011;2919;48.630;9.000;2022-07-21T14:58:14;6.60;;;3.10;;
5785;SDS011;2919;48.630;9.000;2022-07-21T15:00:40;6.60;;;3.17;;
5785;SDS011;2919;48.630;9.000;2022-07-21T15:03:05;6.40;;;2.30;;
5785;SDS011;2919;48.630;9.000;2022-07-21T15:05:31;5.33;;;3.17;;
5785;SDS011;2919;48.630;9.000;2022-07-21T15:07:56;5.13;;;3.00;;
5785;SDS011;2919;48.630;9.000;2022-07-21T15:10:22;5.50;;;3.00;;
5785;SDS011;2919;48.630;9.000;2022-07-21T15:12:48;5.73;;;2.37;;
5785;SDS011;2919;48.630;9.000;2022-07-21T15:15:14;8.57;;;3.27;;
5785;SDS011;2919;48.630;9.000;2022-07-21T15:17:39;5.77;;;3.30;;
5785;SDS011;2919;48.630;9.000;2022-07-21T15:20:05;4.43;;;2.67;;
5785;SDS011;2919;48.630;9.000;2022-07-21T15:22:32;7.23;;;3.00;;
5785;SDS011;2919;48.630;9.000;2022-07-21T15:24:58;6.40;;;2.80;;
5785;SDS011;2919;48.630;9.000;2022-07-21T15:27:27;6.30;;;3.03;;
5785;SDS011;2919;48.630;9.000;2022-07-21T15:29:54;4.10;;;3.00;;
5785;SDS011;2919;48.630;9.000;2022-07-21T15:32:19;5.53;;;2.77;;
5785;SDS011;2919;48.630;9.000;2022-07-21T15:34:45;3.70;;;2.50;;
5785;SDS011;2919;48.630;9.000;2022-07-21T15:37:11;7.53;;;2.83;;
5785;SDS011;2919;48.630;9.000;2022-07-21T15:39:37;7.40;;;2.57;;
5785;SDS011;2919;48.630;9.000;2022-07-21T15:42:07;3.33;;;2.07;;
5785;SDS011;2919;48.630;9.000;2022-07-21T15:44:34;4.73;;;2.60;;
5785;SDS011;2919;48.630;9.000;2022-07-21T15:47:00;4.83;;;2.27;;
5785;SDS011;2919;48.630;9.000;2022-07-21T15:49:26;6.30;;;2.70;;
5785;SDS011;2919;48.630;9.000;2022-07-21T15:51:51;6.70;;;2.90;;
5785;SDS011;2919;48.630;9.000;2022-07-21T15:54:17;6.63;;;2.70;;
5785;SDS011;2919;48.630;9.000;2022-07-21T15:56:43;5.10;;;3.07;;
5785;SDS011;2919;48.630;9.000;2022-07-21T15:59:09;7.70;;;3.23;;
5785;SDS011;2919;48.630;9.000;2022-07-21T16:01:53;8.37;;;3.03;;
5785;SDS011;2919;48.630;9.000;2022-07-21T16:04:19;4.10;;;2.60;;
5785;SDS011;2919;48.630;9.000;2022-07-21T16:06:44;4.83;;;3.00;;